sensor_id;sensor_type;location;lat;lon;timestamp;P1;durP1;ratioP1;P2;durP2;ratioP2
27983;SDS011;15317;50.360;8.726;2023-07-24T00:01:49;3.53;;;3.20;;
27983;SDS011;15317;50.360;8.726;2023-07-24T00:06:52;3.20;;;2.93;;
27983;SDS011;15317;50.360;8.726;2023-07-24T00:11:57;3.03;;;2.80;;
27983;SDS011;15317;50.360;8.726;2023-07-24T00:17:01;3.43;;;3.13;;
27983;SDS011;15317;50.360;8.726;2023-07-24T00:22:04;3.20;;;2.90;;
27983;SDS011;15317;50.360;8.726;2023-07-24T00:27:09;3.60;;;3.30;;
27983;SDS011;15317;50.360;8.726;2023-07-24T00:32:12;3.40;;;3.10;;
27983;SDS011;15317;50.360;8.726;2023-07-24T00:37:15;3.73;;;3.40;;
27983;SDS011;15317;50.360;8.726;2023-07-24T00:42:20;4.37;;;3.00;;
27983;SDS011;15317;50.360;8.726;2023-07-24T00:47:23;3.70;;;3.40;;
27983;SDS011;15317;50.360;8.726;2023-07-24T00:52:29;4.00;;;3.27;;
27983;SDS011;15317;50.360;8.726;2023-07-24T00:57:33;3.77;;;3.27;;
27983;SDS011;15317;50.360;8.726;2023-07-24T01:02:37;3.57;;;3.27;;
27983;SDS011;15317;50.360;8.726;2023-07-24T01:07:41;3.47;;;3.10;;
27983;SDS011;15317;50.360;8.726;2023-07-24T01:12:48;3.50;;;3.20;;
27983;SDS011;15317;50.360;8.726;2023-07-24T01:17:57;3.23;;;3.00;;
27983;SDS011;15317;50.360;8.726;2023-07-24T01:23:13;5.90;;;3.60;;
27983;SDS011;15317;50.360;8.726;2023-07-24T01:28:25;5.30;;;3.30;;
27983;SDS011;15317;50.360;8.726;2023-07-24T01:33:29;3.70;;;3.30;;
27983;SDS011;15317;50.360;8.726;2023-07-24T01:38:34;3.93;;;3.07;;
27983;SDS011;15317;50.360;8.726;2023-07-24T01:43:39;3.50;;;3.20;;
27983;SDS011;15317;50.360;8.726;2023-07-24T01:48:42;4.17;;;3.20;;
27983;SDS011;15317;50.360;8.726;2023-07-24T01:53:45;4.00;;;3.37;;
27983;SDS011;15317;50.360;8.726;2023-07-24T01:58:49;5.03;;;3.00;;
27983;SDS011;15317;50.360;8.726;2023-07-24T02:03:53;3.70;;;3.37;;
27983;SDS011;15317;50.360;8.726;2023-07-24T02:08:56;4.43;;;3.30;;
27983;SDS011;15317;50.360;8.726;2023-07-24T02:14:00;3.47;;;3.20;;
27983;SDS011;15317;50.360;8.726;2023-07-24T02:19:04;3.60;;;3.30;;
27983;SDS011;15317;50.360;8.726;2023-07-24T02:24:07;5.23;;;3.43;;
27983;SDS011;15317;50.360;8.726;2023-07-24T02:29:12;3.57;;;3.27;;
27983;SDS011;15317;50.360;8.726;2023-07-24T02:34:15;3.13;;;2.90;;
27983;SDS011;15317;50.360;8.726;2023-07-24T02:39:18;4.10;;;3.40;;
27983;SDS011;15317;50.360;8.726;2023-07-24T02:44:22;3.47;;;3.20;;
27983;SDS011;15317;50.360;8.726;2023-07-24T02:49:25;6.00;;;3.53;;
27983;SDS011;15317;50.360;8.726;2023-07-24T02:54:29;7.67;;;3.17;;
27983;SDS011;15317;50.360;8.726;2023-07-24T02:59:33;4.37;;;3.50;;
27983;SDS011;15317;50.360;8.726;2023-07-24T03:04:37;4.63;;;3.23;;
27983;SDS011;15317;50.360;8.726;2023-07-24T03:09:40;3.33;;;3.00;;
27983;SDS011;15317;50.360;8.726;2023-07-24T03:14:44;5.30;;;3.30;;
27983;SDS011;15317;50.360;8.726;2023-07-24T03:19:48;3.93;;;3.10;;
27983;SDS011;15317;50.360;8.726;2023-07-24T03:24:51;3.33;;;3.03;;
27983;SDS011;15317;50.360;8.726;2023-07-24T03:29:56;5.13;;;3.30;;
27983;SDS011;15317;50.360;8.726;2023-07-24T03:34:59;3.20;;;2.90;;
27983;SDS011;15317;50.360;8.726;2023-07-24T03:40:02;3.80;;;3.50;;
27983;SDS011;15317;50.360;8.726;2023-07-24T03:45:08;3.33;;;3.00;;
27983;SDS011;15317;50.360;8.726;2023-07-24T03:50:11;4.70;;;3.10;;
27983;SDS011;15317;50.360;8.726;2023-07-24T03:55:14;3.63;;;3.10;;
27983;SDS011;15317;50.360;8.726;2023-07-24T04:00:19;3.80;;;3.47;;
27983;SDS011;15317;50.360;8.726;2023-07-24T04:05:22;4.20;;;3.27;;
27983;SDS011;15317;50.360;8.726;2023-07-24T04:10:25;4.97;;;3.60;;
27983;SDS011;15317;50.360;8.726;2023-07-24T04:15:30;4.40;;;3.93;;
27983;SDS011;15317;50.360;8.726;2023-07-24T04:20:33;4.40;;;4.00;;
27983;SDS011;15317;50.360;8.726;2023-07-24T04:25:37;4.70;;;3.60;;
27983;SDS011;15317;50.360;8.726;2023-07-24T04:30:41;4.10;;;3.70;;
27983;SDS011;15317;50.360;8.726;2023-07-24T04:35:47;4.87;;;4.33;;
27983;SDS011;15317;50.360;8.726;2023-07-24T04:40:50;4.27;;;3.87;;
27983;SDS011;15317;50.360;8.726;2023-07-24T04:45:55;4.37;;;3.93;;
27983;SDS011;15317;50.360;8.726;2023-07-24T04:50:58;4.70;;;4.10;;
27983;SDS011;15317;50.360;8.726;2023-07-24T04:56:01;5.80;;;4.33;;
27983;SDS011;15317;50.360;8.726;2023-07-24T05:01:05;4.53;;;4.13;;
27983;SDS011;15317;50.360;8.726;2023-07-24T05:06:08;5.03;;;4.07;;
27983;SDS011;15317;50.360;8.726;2023-07-24T05:11:12;4.40;;;4.00;;
27983;SDS011;15317;50.360;8.726;2023-07-24T05:16:16;5.83;;;4.30;;
27983;SDS011;15317;50.360;8.726;2023-07-24T05:21:19;4.63;;;4.23;;
27983;SDS011;15317;50.360;8.726;2023-07-24T05:26:22;6.43;;;4.17;;
27983;SDS011;15317;50.360;8.726;2023-07-24T05:31:27;5.13;;;4.50;;
27983;SDS011;15317;50.360;8.726;2023-07-24T05:36:30;5.13;;;4.63;;
27983;SDS011;15317;50.360;8.726;2023-07-24T05:41:34;4.80;;;4.40;;
27983;SDS011;15317;50.360;8.726;2023-07-24T05:46:41;10.20;;;4.70;;
27983;SDS011;15317;50.360;8.726;2023-07-24T05:51:44;7.03;;;4.93;;
27983;SDS011;15317;50.360;8.726;2023-07-24T05:56:47;5.90;;;5.30;;
27983;SDS011;15317;50.360;8.726;2023-07-24T06:01:51;5.57;;;4.77;;
27983;SDS011;15317;50.360;8.726;2023-07-24T06:06:55;6.57;;;4.90;;
27983;SDS011;15317;50.360;8.726;2023-07-24T06:11:58;5.23;;;4.73;;
27983;SDS011;15317;50.360;8.726;2023-07-24T06:17:03;5.40;;;4.90;;
27983;SDS011;15317;50.360;8.726;2023-07-24T06:22:07;5.10;;;4.70;;
27983;SDS011;15317;50.360;8.726;2023-07-24T06:27:10;5.10;;;4.60;;
27983;SDS011;15317;50.360;8.726;2023-07-24T06:32:15;7.13;;;4.70;;
27983;SDS011;15317;50.360;8.726;2023-07-24T06:37:18;8.70;;;4.93;;
27983;SDS011;15317;50.360;8.726;2023-07-24T06:42:24;9.50;;;5.30;;
27983;SDS011;15317;50.360;8.726;2023-07-24T06:47:28;8.50;;;5.07;;
27983;SDS011;15317;50.360;8.726;2023-07-24T06:52:31;6.77;;;5.60;;
27983;SDS011;15317;50.360;8.726;2023-07-24T06:57:35;6.40;;;5.40;;
27983;SDS011;15317;50.360;8.726;2023-07-24T07:02:39;7.60;;;5.63;;
27983;SDS011;15317;50.360;8.726;2023-07-24T07:07:42;8.43;;;5.20;;
27983;SDS011;15317;50.360;8.726;2023-07-24T07:12:46;6.87;;;4.83;;
27983;SDS011;15317;50.360;8.726;2023-07-24T07:17:50;5.57;;;4.90;;
27983;SDS011;15317;50.360;8.726;2023-07-24T07:22:54;5.05;;;4.65;;
27983;SDS011;15317;50.360;8.726;2023-07-24T07:27:57;5.47;;;4.97;;
27983;SDS011;15317;50.360;8.726;2023-07-24T07:33:01;5.07;;;4.60;;
27983;SDS011;15317;50.360;8.726;2023-07-24T07:38:06;5.82;;;4.78;;
27983;SDS011;15317;50.360;8.726;2023-07-24T07:43:09;6.07;;;4.47;;
27983;SDS011;15317;50.360;8.726;2023-07-24T07:48:13;4.32;;;3.92;;
27983;SDS011;15317;50.360;8.726;2023-07-24T07:53:16;8.23;;;4.13;;
27983;SDS011;15317;50.360;8.726;2023-07-24T07:58:20;5.28;;;3.42;;
27983;SDS011;15317;50.360;8.726;2023-07-24T08:03:24;4.40;;;3.90;;
27983;SDS011;15317;50.360;8.726;2023-07-24T08:08:28;3.92;;;3.63;;
27983;SDS011;15317;50.360;8.726;2023-07-24T08:13:31;4.07;;;3.45;;
27983;SDS011;15317;50.360;8.726;2023-07-24T08:18:36;6.43;;;3.53;;
27983;SDS011;15317;50.360;8.726;2023-07-24T08:23:39;4.00;;;3.60;;
27983;SDS011;15317;50.360;8.726;2023-07-24T08:28:42;4.28;;;3.72;;
27983;SDS011;15317;50.360;8.726;2023-07-24T08:33:47;3.72;;;3.30;;
27983;SDS011;15317;50.360;8.726;2023-07-24T08:38:50;3.92;;;3.60;;
27983;SDS011;15317;50.360;8.726;2023-07-24T08:43:53;3.95;;;3.60;;
27983;SDS011;15317;50.360;8.726;2023-07-24T08:48:58;4.18;;;3.78;;
27983;SDS011;15317;50.360;8.726;2023-07-24T08:54:01;5.85;;;3.72;;
27983;SDS011;15317;50.360;8.726;2023-07-24T08:59:05;3.75;;;3.33;;
27983;SDS011;15317;50.360;8.726;2023-07-24T09:04:10;3.88;;;3.50;;
27983;SDS011;15317;50.360;8.726;2023-07-24T09:09:13;3.45;;;3.15;;
27983;SDS011;15317;50.360;8.726;2023-07-24T09:14:20;3.90;;;3.60;;
27983;SDS011;15317;50.360;8.726;2023-07-24T09:19:26;3.78;;;3.40;;
27983;SDS011;15317;50.360;8.726;2023-07-24T09:24:29;4.80;;;3.50;;
27983;SDS011;15317;50.360;8.726;2023-07-24T09:29:32;4.57;;;3.80;;
27983;SDS011;15317;50.360;8.726;2023-07-24T09:34:42;3.80;;;3.50;;
27983;SDS011;15317;50.360;8.726;2023-07-24T09:39:46;3.65;;;3.35;;
27983;SDS011;15317;50.360;8.726;2023-07-24T09:44:49;4.18;;;3.78;;
27983;SDS011;15317;50.360;8.726;2023-07-24T09:49:54;4.18;;;3.60;;
27983;SDS011;15317;50.360;8.726;2023-07-24T09:54:59;4.30;;;3.40;;
27983;SDS011;15317;50.360;8.726;2023-07-24T10:00:13;5.00;;;3.60;;
27983;SDS011;15317;50.360;8.726;2023-07-24T10:05:18;4.53;;;3.65;;
27983;SDS011;15317;50.360;8.726;2023-07-24T10:10:22;4.07;;;3.70;;
27983;SDS011;15317;50.360;8.726;2023-07-24T10:15:25;4.10;;;3.38;;
27983;SDS011;15317;50.360;8.726;2023-07-24T10:20:33;6.20;;;4.03;;
27983;SDS011;15317;50.360;8.726;2023-07-24T10:25:39;3.95;;;3.65;;
27983;SDS011;15317;50.360;8.726;2023-07-24T10:30:43;4.15;;;3.72;;
27983;SDS011;15317;50.360;8.726;2023-07-24T10:35:49;5.32;;;3.67;;
27983;SDS011;15317;50.360;8.726;2023-07-24T10:41:00;6.15;;;3.40;;
27983;SDS011;15317;50.360;8.726;2023-07-24T10:46:04;4.78;;;3.88;;
27983;SDS011;15317;50.360;8.726;2023-07-24T10:51:09;4.07;;;3.22;;
27983;SDS011;15317;50.360;8.726;2023-07-24T10:56:16;5.50;;;3.60;;
27983;SDS011;15317;50.360;8.726;2023-07-24T11:01:19;4.15;;;3.75;;
27983;SDS011;15317;50.360;8.726;2023-07-24T11:06:24;5.13;;;4.05;;
27983;SDS011;15317;50.360;8.726;2023-07-24T11:11:27;4.78;;;4.30;;
27983;SDS011;15317;50.360;8.726;2023-07-24T11:16:33;5.45;;;4.32;;
27983;SDS011;15317;50.360;8.726;2023-07-24T11:21:37;5.53;;;4.38;;
27983;SDS011;15317;50.360;8.726;2023-07-24T11:26:40;4.72;;;4.30;;
27983;SDS011;15317;50.360;8.726;2023-07-24T11:31:43;4.20;;;3.80;;
27983;SDS011;15317;50.360;8.726;2023-07-24T11:36:48;4.35;;;4.00;;
27983;SDS011;15317;50.360;8.726;2023-07-24T11:41:51;4.53;;;3.85;;
27983;SDS011;15317;50.360;8.726;2023-07-24T11:47:01;4.72;;;4.32;;
27983;SDS011;15317;50.360;8.726;2023-07-24T11:52:07;4.72;;;4.18;;
27983;SDS011;15317;50.360;8.726;2023-07-24T11:57:14;5.05;;;4.10;;
27983;SDS011;15317;50.360;8.726;2023-07-24T12:02:18;5.88;;;4.68;;
27983;SDS011;15317;50.360;8.726;2023-07-24T12:07:22;6.38;;;4.47;;
27983;SDS011;15317;50.360;8.726;2023-07-24T12:12:36;5.20;;;4.50;;
27983;SDS011;15317;50.360;8.726;2023-07-24T12:17:43;6.78;;;4.43;;
27983;SDS011;15317;50.360;8.726;2023-07-24T12:22:47;4.82;;;4.43;;
27983;SDS011;15317;50.360;8.726;2023-07-24T12:27:51;5.97;;;4.97;;
27983;SDS011;15317;50.360;8.726;2023-07-24T12:32:54;4.80;;;4.20;;
27983;SDS011;15317;50.360;8.726;2023-07-24T12:37:59;4.70;;;4.22;;
27983;SDS011;15317;50.360;8.726;2023-07-24T12:43:02;5.80;;;4.07;;
27983;SDS011;15317;50.360;8.726;2023-07-24T12:48:05;4.38;;;3.97;;
27983;SDS011;15317;50.360;8.726;2023-07-24T12:53:10;4.50;;;4.00;;
27983;SDS011;15317;50.360;8.726;2023-07-24T12:58:20;4.40;;;4.00;;
27983;SDS011;15317;50.360;8.726;2023-07-24T13:03:23;4.55;;;4.18;;
27983;SDS011;15317;50.360;8.726;2023-07-24T13:08:28;5.55;;;3.95;;
27983;SDS011;15317;50.360;8.726;2023-07-24T13:13:31;5.82;;;4.43;;
27983;SDS011;15317;50.360;8.726;2023-07-24T13:18:34;4.60;;;4.20;;
27983;SDS011;15317;50.360;8.726;2023-07-24T13:23:39;4.22;;;3.90;;
27983;SDS011;15317;50.360;8.726;2023-07-24T13:28:42;4.05;;;3.75;;
27983;SDS011;15317;50.360;8.726;2023-07-24T13:33:45;4.30;;;3.90;;
27983;SDS011;15317;50.360;8.726;2023-07-24T13:38:50;4.72;;;3.75;;
27983;SDS011;15317;50.360;8.726;2023-07-24T13:43:54;4.10;;;3.80;;
27983;SDS011;15317;50.360;8.726;2023-07-24T13:48:57;4.60;;;4.20;;
27983;SDS011;15317;50.360;8.726;2023-07-24T13:54:01;5.10;;;4.15;;
27983;SDS011;15317;50.360;8.726;2023-07-24T13:59:05;4.35;;;3.70;;
27983;SDS011;15317;50.360;8.726;2023-07-24T14:04:08;4.15;;;3.75;;
27983;SDS011;15317;50.360;8.726;2023-07-24T14:09:14;4.25;;;3.85;;
27983;SDS011;15317;50.360;8.726;2023-07-24T14:14:18;10.77;;;3.67;;
27983;SDS011;15317;50.360;8.726;2023-07-24T14:19:21;5.90;;;3.92;;
27983;SDS011;15317;50.360;8.726;2023-07-24T14:24:26;6.03;;;3.55;;
27983;SDS011;15317;50.360;8.726;2023-07-24T14:29:29;6.85;;;3.15;;
27983;SDS011;15317;50.360;8.726;2023-07-24T14:34:33;4.87;;;2.60;;
27983;SDS011;15317;50.360;8.726;2023-07-24T14:39:37;3.40;;;2.73;;
27983;SDS011;15317;50.360;8.726;2023-07-24T14:44:40;3.03;;;2.77;;
27983;SDS011;15317;50.360;8.726;2023-07-24T14:49:43;4.23;;;2.40;;
27983;SDS011;15317;50.360;8.726;2023-07-24T14:54:48;2.97;;;2.45;;
27983;SDS011;15317;50.360;8.726;2023-07-24T14:59:51;3.00;;;2.60;;
27983;SDS011;15317;50.360;8.726;2023-07-24T15:04:54;3.35;;;2.83;;
27983;SDS011;15317;50.360;8.726;2023-07-24T15:09:59;3.00;;;2.80;;
27983;SDS011;15317;50.360;8.726;2023-07-24T15:15:02;2.75;;;2.55;;
27983;SDS011;15317;50.360;8.726;2023-07-24T15:20:07;2.38;;;2.28;;
27983;SDS011;15317;50.360;8.726;2023-07-24T15:25:12;3.13;;;2.50;;
27983;SDS011;15317;50.360;8.726;2023-07-24T15:30:15;3.03;;;2.83;;
27983;SDS011;15317;50.360;8.726;2023-07-24T15:35:18;2.60;;;2.40;;
27983;SDS011;15317;50.360;8.726;2023-07-24T15:40:23;2.53;;;2.33;;
27983;SDS011;15317;50.360;8.726;2023-07-24T15:45:26;2.30;;;2.10;;
27983;SDS011;15317;50.360;8.726;2023-07-24T15:50:29;1.98;;;1.88;;
27983;SDS011;15317;50.360;8.726;2023-07-24T15:55:33;1.70;;;1.60;;
27983;SDS011;15317;50.360;8.726;2023-07-24T16:00:36;1.58;;;1.30;;
27983;SDS011;15317;50.360;8.726;2023-07-24T16:05:39;1.27;;;1.17;;
27983;SDS011;15317;50.360;8.726;2023-07-24T16:10:44;1.45;;;1.27;;
27983;SDS011;15317;50.360;8.726;2023-07-24T16:15:47;1.80;;;1.20;;
27983;SDS011;15317;50.360;8.726;2023-07-24T16:20:50;1.20;;;1.10;;
27983;SDS011;15317;50.360;8.726;2023-07-24T16:25:57;1.23;;;1.13;;
27983;SDS011;15317;50.360;8.726;2023-07-24T16:31:00;1.27;;;1.17;;
27983;SDS011;15317;50.360;8.726;2023-07-24T16:36:04;1.35;;;1.25;;
27983;SDS011;15317;50.360;8.726;2023-07-24T16:41:08;1.40;;;1.30;;
27983;SDS011;15317;50.360;8.726;2023-07-24T16:46:12;1.42;;;1.33;;
27983;SDS011;15317;50.360;8.726;2023-07-24T16:51:18;1.48;;;1.38;;
27983;SDS011;15317;50.360;8.726;2023-07-24T16:56:23;1.58;;;1.40;;
27983;SDS011;15317;50.360;8.726;2023-07-24T17:01:26;2.45;;;1.50;;
27983;SDS011;15317;50.360;8.726;2023-07-24T17:06:29;2.13;;;1.80;;
27983;SDS011;15317;50.360;8.726;2023-07-24T17:11:34;2.05;;;1.55;;
27983;SDS011;15317;50.360;8.726;2023-07-24T17:16:37;1.65;;;1.35;;
27983;SDS011;15317;50.360;8.726;2023-07-24T17:21:40;6.25;;;1.60;;
27983;SDS011;15317;50.360;8.726;2023-07-24T17:26:44;4.28;;;1.50;;
27983;SDS011;15317;50.360;8.726;2023-07-24T17:31:48;2.28;;;1.30;;
27983;SDS011;15317;50.360;8.726;2023-07-24T17:36:51;2.73;;;1.70;;
27983;SDS011;15317;50.360;8.726;2023-07-24T17:41:55;4.55;;;1.50;;
27983;SDS011;15317;50.360;8.726;2023-07-24T17:46:58;2.75;;;1.52;;
27983;SDS011;15317;50.360;8.726;2023-07-24T17:52:01;1.60;;;1.50;;
27983;SDS011;15317;50.360;8.726;2023-07-24T17:57:06;1.80;;;1.70;;
27983;SDS011;15317;50.360;8.726;2023-07-24T18:02:10;1.98;;;1.30;;
27983;SDS011;15317;50.360;8.726;2023-07-24T18:07:13;1.93;;;1.37;;
27983;SDS011;15317;50.360;8.726;2023-07-24T18:12:18;1.60;;;1.50;;
27983;SDS011;15317;50.360;8.726;2023-07-24T18:17:22;1.60;;;1.50;;
27983;SDS011;15317;50.360;8.726;2023-07-24T18:22:26;1.70;;;1.60;;
27983;SDS011;15317;50.360;8.726;2023-07-24T18:27:31;2.00;;;1.80;;
27983;SDS011;15317;50.360;8.726;2023-07-24T18:32:35;1.42;;;1.33;;
27983;SDS011;15317;50.360;8.726;2023-07-24T18:37:39;1.97;;;1.43;;
27983;SDS011;15317;50.360;8.726;2023-07-24T18:42:43;2.22;;;1.50;;
27983;SDS011;15317;50.360;8.726;2023-07-24T18:47:46;1.95;;;1.55;;
27983;SDS011;15317;50.360;8.726;2023-07-24T18:52:49;2.50;;;1.60;;
27983;SDS011;15317;50.360;8.726;2023-07-24T18:57:54;1.70;;;1.60;;
27983;SDS011;15317;50.360;8.726;2023-07-24T19:02:57;1.70;;;1.30;;
27983;SDS011;15317;50.360;8.726;2023-07-24T19:08:00;1.20;;;1.10;;
27983;SDS011;15317;50.360;8.726;2023-07-24T19:13:05;1.83;;;1.10;;
27983;SDS011;15317;50.360;8.726;2023-07-24T19:18:08;2.50;;;1.10;;
27983;SDS011;15317;50.360;8.726;2023-07-24T19:23:11;1.10;;;1.07;;
27983;SDS011;15317;50.360;8.726;2023-07-24T19:28:15;1.47;;;1.37;;
27983;SDS011;15317;50.360;8.726;2023-07-24T19:33:19;2.13;;;1.10;;
27983;SDS011;15317;50.360;8.726;2023-07-24T19:38:22;2.60;;;1.10;;
27983;SDS011;15317;50.360;8.726;2023-07-24T19:43:27;5.43;;;1.60;;
27983;SDS011;15317;50.360;8.726;2023-07-24T19:48:30;1.30;;;1.20;;
27983;SDS011;15317;50.360;8.726;2023-07-24T19:53:33;1.00;;;1.00;;
27983;SDS011;15317;50.360;8.726;2023-07-24T19:58:38;1.30;;;1.17;;
27983;SDS011;15317;50.360;8.726;2023-07-24T20:03:41;1.20;;;1.10;;
27983;SDS011;15317;50.360;8.726;2023-07-24T20:08:44;1.10;;;1.10;;
27983;SDS011;15317;50.360;8.726;2023-07-24T20:13:49;1.23;;;0.83;;
27983;SDS011;15317;50.360;8.726;2023-07-24T20:18:52;1.10;;;1.00;;
27983;SDS011;15317;50.360;8.726;2023-07-24T20:23:55;2.00;;;1.37;;
27983;SDS011;15317;50.360;8.726;2023-07-24T20:29:10;1.60;;;1.30;;
27983;SDS011;15317;50.360;8.726;2023-07-24T20:34:14;1.90;;;1.57;;
27983;SDS011;15317;50.360;8.726;2023-07-24T20:39:17;1.30;;;1.20;;
27983;SDS011;15317;50.360;8.726;2023-07-24T20:44:21;2.50;;;1.20;;
27983;SDS011;15317;50.360;8.726;2023-07-24T20:49:25;2.10;;;1.40;;
27983;SDS011;15317;50.360;8.726;2023-07-24T20:54:30;1.40;;;1.20;;
27983;SDS011;15317;50.360;8.726;2023-07-24T20:59:34;1.40;;;1.30;;
27983;SDS011;15317;50.360;8.726;2023-07-24T21:04:37;1.40;;;1.10;;
27983;SDS011;15317;50.360;8.726;2023-07-24T21:09:41;1.27;;;1.10;;
27983;SDS011;15317;50.360;8.726;2023-07-24T21:14:45;1.47;;;1.37;;
27983;SDS011;15317;50.360;8.726;2023-07-24T21:19:49;2.37;;;1.20;;
27983;SDS011;15317;50.360;8.726;2023-07-24T21:24:52;1.30;;;1.20;;
27983;SDS011;15317;50.360;8.726;2023-07-24T21:29:57;1.83;;;1.10;;
27983;SDS011;15317;50.360;8.726;2023-07-24T21:35:00;1.83;;;1.07;;
27983;SDS011;15317;50.360;8.726;2023-07-24T21:40:04;1.30;;;1.20;;
27983;SDS011;15317;50.360;8.726;2023-07-24T21:45:09;2.67;;;1.30;;
27983;SDS011;15317;50.360;8.726;2023-07-24T21:50:12;1.30;;;1.20;;
27983;SDS011;15317;50.360;8.726;2023-07-24T21:55:15;1.40;;;1.30;;
27983;SDS011;15317;50.360;8.726;2023-07-24T22:00:20;1.27;;;1.17;;
27983;SDS011;15317;50.360;8.726;2023-07-24T22:05:24;1.83;;;1.50;;
27983;SDS011;15317;50.360;8.726;2023-07-24T22:10:27;2.70;;;1.20;;
27983;SDS011;15317;50.360;8.726;2023-07-24T22:15:32;2.20;;;1.40;;
27983;SDS011;15317;50.360;8.726;2023-07-24T22:20:35;1.47;;;1.37;;
27983;SDS011;15317;50.360;8.726;2023-07-24T22:25:42;1.80;;;1.50;;
27983;SDS011;15317;50.360;8.726;2023-07-24T22:30:47;2.57;;;1.70;;
27983;SDS011;15317;50.360;8.726;2023-07-24T22:35:56;1.53;;;1.43;;
27983;SDS011;15317;50.360;8.726;2023-07-24T22:41:07;2.03;;;1.60;;
27983;SDS011;15317;50.360;8.726;2023-07-24T22:46:12;3.10;;;1.77;;
27983;SDS011;15317;50.360;8.726;2023-07-24T22:51:15;1.70;;;1.60;;
27983;SDS011;15317;50.360;8.726;2023-07-24T22:56:18;3.27;;;1.80;;
27983;SDS011;15317;50.360;8.726;2023-07-24T23:01:26;2.47;;;2.00;;
27983;SDS011;15317;50.360;8.726;2023-07-24T23:06:31;1.90;;;1.80;;
27983;SDS011;15317;50.360;8.726;2023-07-24T23:11:34;2.30;;;2.10;;
27983;SDS011;15317;50.360;8.726;2023-07-24T23:16:39;2.47;;;2.10;;
27983;SDS011;15317;50.360;8.726;2023-07-24T23:21:42;2.20;;;2.00;;
27983;SDS011;15317;50.360;8.726;2023-07-24T23:26:45;2.80;;;2.33;;
27983;SDS011;15317;50.360;8.726;2023-07-24T23:31:49;2.70;;;2.50;;
27983;SDS011;15317;50.360;8.726;2023-07-24T23:36:56;2.83;;;2.63;;
27983;SDS011;15317;50.360;8.726;2023-07-24T23:41:59;3.23;;;2.40;;
27983;SDS011;15317;50.360;8.726;2023-07-24T23:47:04;3.97;;;2.80;;
27983;SDS011;15317;50.360;8.726;2023-07-24T23:52:07;2.83;;;2.63;;
27983;SDS011;15317;50.360;8.726;2023-07-24T23:57:11;3.20;;;2.90;;
